Historie AUP a zpráv METAR Praha-Ruzyně z 12:00 UTC

Datum: 26-01-2020 / Vyber datum:
LKPR 261200Z VRB02KT 3000 BR SCT002 OVC003 M00/M01 Q1020 BECMG 4000 BR BKN005
Prostor Spodní hranice Horní hranice Od Do